createdAt,value
2023-04-22T00:01:32.456Z,5.15
2023-04-22T00:03:59.455Z,7.00
2023-04-22T00:06:26.592Z,5.07
2023-04-22T00:08:53.627Z,7.05
2023-04-22T00:11:20.691Z,5.90
2023-04-22T00:13:47.591Z,5.32
2023-04-22T00:16:14.686Z,5.55
2023-04-22T00:18:41.691Z,5.38
2023-04-22T00:21:08.797Z,6.57
2023-04-22T00:23:36.000Z,4.72
2023-04-22T00:26:03.358Z,5.35
2023-04-22T00:28:30.641Z,5.97
2023-04-22T00:30:58.824Z,6.10
2023-04-22T00:33:26.050Z,5.40
2023-04-22T00:35:54.657Z,7.78
2023-04-22T00:38:22.931Z,6.00
2023-04-22T00:40:49.873Z,5.80
2023-04-22T00:43:17.813Z,6.32
2023-04-22T00:45:45.346Z,5.63
2023-04-22T00:48:13.461Z,6.18
2023-04-22T00:50:40.647Z,5.78
2023-04-22T00:53:07.819Z,5.65
2023-04-22T00:55:35.276Z,5.60
2023-04-22T00:58:03.479Z,8.00
2023-04-22T01:00:30.939Z,6.00
2023-04-22T01:02:58.564Z,5.57
2023-04-22T01:05:28.818Z,5.88
2023-04-22T01:07:55.964Z,6.25
2023-04-22T01:10:23.175Z,6.32
2023-04-22T01:12:51.781Z,6.97
2023-04-22T01:15:19.015Z,8.27
2023-04-22T01:17:46.099Z,6.13
2023-04-22T01:20:13.970Z,7.57
2023-04-22T01:22:42.472Z,5.68
2023-04-22T01:25:11.318Z,6.47
2023-04-22T01:27:39.257Z,7.63
2023-04-22T01:30:07.471Z,6.05
2023-04-22T01:32:34.691Z,5.78
2023-04-22T01:35:01.828Z,6.68
2023-04-22T01:37:29.968Z,5.40
2023-04-22T01:39:58.841Z,5.85
2023-04-22T01:42:26.056Z,8.35
2023-04-22T01:44:53.028Z,5.63
2023-04-22T01:47:19.957Z,6.32
2023-04-22T01:49:47.223Z,6.13
2023-04-22T01:52:14.349Z,6.22
2023-04-22T01:54:41.773Z,5.53
2023-04-22T01:57:14.028Z,6.05
2023-04-22T01:59:41.911Z,5.93
2023-04-22T02:02:09.235Z,6.05
2023-04-22T02:04:36.557Z,6.00
2023-04-22T02:07:03.711Z,6.13
2023-04-22T02:09:33.482Z,6.13
2023-04-22T02:12:01.313Z,6.35
2023-04-22T02:14:28.484Z,7.38
2023-04-22T02:16:55.469Z,7.00
2023-04-22T02:19:22.481Z,6.53
2023-04-22T02:21:49.554Z,6.80
2023-04-22T02:24:16.678Z,6.15
2023-04-22T02:26:43.598Z,6.72
2023-04-22T02:29:10.520Z,4.88
2023-04-22T02:31:37.493Z,6.18
2023-04-22T02:34:05.224Z,6.15
2023-04-22T02:36:34.562Z,6.43
2023-04-22T02:39:03.677Z,5.90
2023-04-22T02:41:30.759Z,6.45
2023-04-22T02:43:57.841Z,5.57
2023-04-22T02:46:25.909Z,7.88
2023-04-22T02:48:53.021Z,6.13
2023-04-22T02:51:21.994Z,5.90
2023-04-22T02:53:48.910Z,5.75
2023-04-22T02:56:16.021Z,5.70
2023-04-22T02:58:43.267Z,6.40
2023-04-22T03:01:10.387Z,5.75
2023-04-22T03:03:37.779Z,5.70
2023-04-22T03:06:07.190Z,6.50
2023-04-22T03:08:34.220Z,5.40
2023-04-22T03:11:01.194Z,6.05
2023-04-22T03:13:28.161Z,5.97
2023-04-22T03:15:55.874Z,6.20
2023-04-22T03:18:22.901Z,5.78
2023-04-22T03:20:50.357Z,6.40
2023-04-22T03:23:18.922Z,5.60
2023-04-22T03:25:45.890Z,6.55
2023-04-22T03:28:13.074Z,6.05
2023-04-22T03:30:41.035Z,5.13
2023-04-22T03:33:08.149Z,5.03
2023-04-22T03:35:51.079Z,5.35
2023-04-22T03:38:18.210Z,6.10
2023-04-22T03:40:45.208Z,5.57
2023-04-22T03:43:38.037Z,5.20
2023-04-22T03:46:08.699Z,5.40
2023-04-22T03:48:39.828Z,5.57
2023-04-22T03:51:12.496Z,5.70
2023-04-22T03:53:41.307Z,5.25
2023-04-22T03:56:11.152Z,5.38
2023-04-22T03:58:44.152Z,5.22
2023-04-22T04:01:11.470Z,5.75
2023-04-22T04:03:39.533Z,5.53
2023-04-22T04:06:08.466Z,5.20
2023-04-22T04:08:36.767Z,5.00
2023-04-22T04:11:04.761Z,5.60
2023-04-22T04:13:32.547Z,5.30
2023-04-22T04:18:51.951Z,5.45
2023-04-22T04:21:21.811Z,5.63
2023-04-22T04:23:51.502Z,5.20
2023-04-22T04:26:23.950Z,5.70
2023-04-22T04:28:56.133Z,5.72
2023-04-22T04:31:24.916Z,5.35
2023-04-22T04:33:53.057Z,6.30
2023-04-22T04:36:20.393Z,5.88
2023-04-22T04:38:48.875Z,5.63
2023-04-22T04:41:16.046Z,4.95
2023-04-22T04:43:46.367Z,5.45
2023-04-22T04:46:22.739Z,5.22
2023-04-22T04:48:51.648Z,5.22
2023-04-22T04:51:20.393Z,5.40
2023-04-22T04:53:57.332Z,5.50
2023-04-22T04:56:27.712Z,5.75
2023-04-22T04:58:55.256Z,5.55
2023-04-22T05:01:25.272Z,5.72
2023-04-22T05:03:53.225Z,5.10
2023-04-22T05:06:21.287Z,5.43
2023-04-22T05:09:02.602Z,5.80
2023-04-22T05:11:29.937Z,5.70
2023-04-22T05:13:58.554Z,5.35
2023-04-22T05:16:31.332Z,5.78
2023-04-22T05:18:58.937Z,5.97
2023-04-22T05:21:25.928Z,6.05
2023-04-22T05:23:52.935Z,5.43
2023-04-22T05:26:20.349Z,6.25
2023-04-22T05:28:49.810Z,5.40
2023-04-22T05:31:18.293Z,5.68
2023-04-22T05:33:45.432Z,5.63
2023-04-22T05:36:12.457Z,5.97
2023-04-22T05:38:39.597Z,6.00
2023-04-22T05:41:06.501Z,6.35
2023-04-22T05:43:33.809Z,5.97
2023-04-22T05:46:11.603Z,6.28
2023-04-22T05:48:40.787Z,6.22
2023-04-22T05:51:15.995Z,6.03
2023-04-22T05:53:42.955Z,5.72
2023-04-22T05:56:10.768Z,7.07
2023-04-22T05:58:38.044Z,7.40
2023-04-22T06:01:11.842Z,6.90
2023-04-22T06:03:55.538Z,7.30
2023-04-22T06:06:24.119Z,8.02
2023-04-22T06:08:51.105Z,7.15
2023-04-22T06:11:18.461Z,6.43
2023-04-22T06:13:45.402Z,5.82
2023-04-22T06:16:12.410Z,9.25
2023-04-22T06:18:39.524Z,6.75
2023-04-22T06:21:11.121Z,7.88
2023-04-22T06:23:38.125Z,7.00
2023-04-22T06:26:05.252Z,7.18
2023-04-22T06:28:33.378Z,7.68
2023-04-22T06:31:05.319Z,7.32
2023-04-22T06:33:32.707Z,8.15
2023-04-22T06:36:01.536Z,7.88
2023-04-22T06:38:31.492Z,8.48
2023-04-22T06:41:23.890Z,7.57
2023-04-22T06:43:53.364Z,7.35
2023-04-22T06:46:39.064Z,8.05
2023-04-22T06:49:25.032Z,8.20
2023-04-22T06:52:18.963Z,7.68
2023-04-22T06:54:46.083Z,7.57
2023-04-22T06:57:13.206Z,7.85
2023-04-22T06:59:40.545Z,7.53
2023-04-22T07:02:08.220Z,10.10
2023-04-22T07:04:38.795Z,9.02
2023-04-22T07:07:06.627Z,7.50
2023-04-22T07:09:33.961Z,10.93
2023-04-22T07:12:01.946Z,11.10
2023-04-22T07:14:30.802Z,8.82
2023-04-22T07:16:57.893Z,8.55
2023-04-22T07:19:25.502Z,11.07
2023-04-22T07:21:52.537Z,9.30
2023-04-22T07:24:19.523Z,9.25
2023-04-22T07:26:46.499Z,12.02
2023-04-22T07:29:13.457Z,9.23
2023-04-22T07:31:40.454Z,12.50
2023-04-22T07:34:07.767Z,8.75
2023-04-22T07:36:34.682Z,8.23
2023-04-22T07:39:01.681Z,12.05
2023-04-22T07:41:28.706Z,9.38
2023-04-22T07:43:55.732Z,11.93
2023-04-22T07:46:23.185Z,11.52
2023-04-22T07:48:50.426Z,10.65
2023-04-22T07:51:17.425Z,8.38
2023-04-22T07:53:44.377Z,7.60
2023-04-22T07:56:11.427Z,7.90
2023-04-22T07:58:38.362Z,9.88
2023-04-22T08:01:05.288Z,9.55
2023-04-22T08:03:32.431Z,7.53
2023-04-22T08:05:59.621Z,7.35
2023-04-22T08:08:26.651Z,7.18
2023-04-22T08:10:53.600Z,10.40
2023-04-22T08:13:20.650Z,9.02
2023-04-22T08:15:47.760Z,7.70
2023-04-22T08:18:14.748Z,6.82
2023-04-22T08:20:41.767Z,9.63
2023-04-22T08:23:08.737Z,9.38
2023-04-22T08:25:35.826Z,10.43
2023-04-22T08:28:03.407Z,10.18
2023-04-22T08:30:30.445Z,7.20
2023-04-22T08:32:57.454Z,9.90
2023-04-22T08:35:24.433Z,10.50
2023-04-22T08:37:51.367Z,9.90
2023-04-22T08:40:18.419Z,10.55
2023-04-22T08:42:45.404Z,9.93
2023-04-22T08:45:13.717Z,9.90
2023-04-22T08:47:41.303Z,10.15
2023-04-22T08:50:09.773Z,10.23
2023-04-22T08:52:37.200Z,10.75
2023-04-22T08:55:04.435Z,11.10
2023-04-22T08:57:31.986Z,10.82
2023-04-22T08:59:59.625Z,11.00
2023-04-22T09:02:29.001Z,10.07
2023-04-22T09:04:56.379Z,10.95
2023-04-22T09:07:26.840Z,9.50
2023-04-22T09:09:57.897Z,10.00
2023-04-22T09:12:28.536Z,9.52
2023-04-22T09:14:56.012Z,10.10
2023-04-22T09:17:33.260Z,9.93
2023-04-22T09:20:05.054Z,10.25
2023-04-22T09:22:41.171Z,10.43
2023-04-22T09:25:18.036Z,10.07
2023-04-22T09:27:49.815Z,10.13
2023-04-22T09:30:19.377Z,10.73
2023-04-22T09:33:00.978Z,10.23
2023-04-22T09:35:28.911Z,10.73
2023-04-22T09:37:56.301Z,11.38
2023-04-22T09:40:24.568Z,10.32
2023-04-22T09:42:53.236Z,10.90
2023-04-22T09:45:35.002Z,16.95
2023-04-22T09:48:12.080Z,10.80
2023-04-22T09:50:41.218Z,11.18
2023-04-22T09:53:12.441Z,10.23
2023-04-22T09:55:43.679Z,10.63
2023-04-22T09:58:12.807Z,12.60
2023-04-22T10:01:00.170Z,10.05
2023-04-22T10:03:27.110Z,10.25
2023-04-22T10:05:54.071Z,10.48
2023-04-22T10:08:21.061Z,10.57
2023-04-22T10:10:48.312Z,10.30
2023-04-22T10:13:15.247Z,11.23
2023-04-22T10:15:53.563Z,11.18
2023-04-22T10:18:26.239Z,10.90
2023-04-22T10:20:56.374Z,11.85
2023-04-22T10:23:24.829Z,12.57
2023-04-22T10:25:55.086Z,12.18
2023-04-22T10:28:23.569Z,12.88
2023-04-22T10:30:51.300Z,11.93
2023-04-22T10:33:21.198Z,11.52
2023-04-22T10:36:08.388Z,12.10
2023-04-22T10:38:40.849Z,11.93
2023-04-22T10:41:13.628Z,11.18
2023-04-22T10:43:42.104Z,12.60
2023-04-22T10:46:32.874Z,12.05
2023-04-22T10:49:07.060Z,12.18
2023-04-22T10:51:46.848Z,11.13
2023-04-22T10:54:27.987Z,10.98
2023-04-22T10:57:03.686Z,9.85
2023-04-22T10:59:41.533Z,8.18
2023-04-22T11:02:11.933Z,8.30
2023-04-22T11:04:39.647Z,9.00
2023-04-22T11:07:26.922Z,9.18
2023-04-22T11:10:01.636Z,8.20
2023-04-22T11:12:49.554Z,10.25
2023-04-22T11:15:22.334Z,9.10
2023-04-22T11:17:53.843Z,8.10
2023-04-22T11:20:21.819Z,8.73
2023-04-22T11:22:53.847Z,8.20
2023-04-22T11:25:21.811Z,8.65
2023-04-22T11:27:49.055Z,9.35
2023-04-22T11:30:19.330Z,8.85
2023-04-22T11:32:51.589Z,10.75
2023-04-22T11:35:20.737Z,11.38
2023-04-22T11:37:52.637Z,10.65
2023-04-22T11:40:30.658Z,10.27
2023-04-22T11:43:00.924Z,10.70
2023-04-22T11:45:29.754Z,9.63
2023-04-22T11:47:57.252Z,9.80
2023-04-22T11:50:28.627Z,11.25
2023-04-22T11:52:58.088Z,9.82
2023-04-22T11:55:30.778Z,9.90
2023-04-22T11:57:59.777Z,10.80
2023-04-22T12:00:33.169Z,10.13
2023-04-22T12:03:05.950Z,11.10
2023-04-22T12:05:35.035Z,10.45
2023-04-22T12:08:30.260Z,11.98
2023-04-22T12:10:59.421Z,9.60
2023-04-22T12:13:43.522Z,9.85
2023-04-22T12:16:12.620Z,8.75
2023-04-22T12:18:53.226Z,11.20
2023-04-22T12:21:24.971Z,10.18
2023-04-22T12:23:57.525Z,9.20
2023-04-22T12:26:27.277Z,9.02
2023-04-22T12:28:56.732Z,8.32
2023-04-22T12:31:24.898Z,8.82
2023-04-22T12:33:51.925Z,8.82
2023-04-22T12:36:22.324Z,8.43
2023-04-22T12:38:49.590Z,8.60
2023-04-22T12:41:16.585Z,8.30
2023-04-22T12:43:43.561Z,7.78
2023-04-22T12:46:10.649Z,7.22
2023-04-22T12:48:37.919Z,8.05
2023-04-22T12:51:06.571Z,8.80
2023-04-22T12:53:33.660Z,8.32
2023-04-22T12:56:00.837Z,8.25
2023-04-22T12:58:28.366Z,7.95
2023-04-22T13:00:55.385Z,9.35
2023-04-22T13:03:22.686Z,8.45
2023-04-22T13:05:49.913Z,8.45
2023-04-22T13:08:17.570Z,7.80
2023-04-22T13:10:44.544Z,8.35
2023-04-22T13:13:18.412Z,8.40
2023-04-22T13:15:47.375Z,7.72
2023-04-22T13:18:16.145Z,7.13
2023-04-22T13:20:43.204Z,7.38
2023-04-22T13:23:10.583Z,7.65
2023-04-22T13:25:37.794Z,8.48
2023-04-22T13:28:04.754Z,7.78
2023-04-22T13:30:31.699Z,7.40
2023-04-22T13:32:58.685Z,7.25
2023-04-22T13:35:25.757Z,7.80
2023-04-22T13:37:52.733Z,7.50
2023-04-22T13:40:19.692Z,8.18
2023-04-22T13:42:46.734Z,7.32
2023-04-22T13:45:13.688Z,7.85
2023-04-22T13:47:40.588Z,7.55
2023-04-22T13:50:09.084Z,7.07
2023-04-22T13:52:36.248Z,8.98
2023-04-22T13:55:03.794Z,9.48
2023-04-22T13:57:30.938Z,8.73
2023-04-22T14:00:00.638Z,8.43
2023-04-22T14:02:27.821Z,8.18
2023-04-22T14:04:54.873Z,8.85
2023-04-22T14:07:21.910Z,7.90
2023-04-22T14:09:48.781Z,7.20
2023-04-22T14:12:15.992Z,7.38
2023-04-22T14:14:43.095Z,8.68
2023-04-22T14:17:10.493Z,8.32
2023-04-22T14:19:39.365Z,7.95
2023-04-22T14:22:06.699Z,8.32
2023-04-22T14:24:33.814Z,8.10
2023-04-22T14:27:04.016Z,8.70
2023-04-22T14:29:31.826Z,7.75
2023-04-22T14:31:58.822Z,7.43
2023-04-22T14:34:27.201Z,8.35
2023-04-22T14:36:54.467Z,9.25
2023-04-22T14:39:21.510Z,6.38
2023-04-22T14:41:48.841Z,7.00
2023-04-22T14:44:16.054Z,7.10
2023-04-22T14:46:42.995Z,8.25
2023-04-22T14:49:10.071Z,8.35
2023-04-22T14:51:37.134Z,7.55
2023-04-22T14:54:04.631Z,7.63
2023-04-22T14:56:31.583Z,7.70
2023-04-22T14:58:58.507Z,6.22
2023-04-22T15:01:25.944Z,7.68
2023-04-22T15:03:53.303Z,7.10
2023-04-22T15:06:20.689Z,6.63
2023-04-22T15:08:47.708Z,7.30
2023-04-22T15:11:14.681Z,7.43
2023-04-22T15:13:41.595Z,6.07
2023-04-22T15:16:08.759Z,6.82
2023-04-22T15:18:36.075Z,5.97
2023-04-22T15:21:05.668Z,5.35
2023-04-22T15:23:32.587Z,4.82
2023-04-22T15:25:59.566Z,4.88
2023-04-22T15:28:26.498Z,5.05
2023-04-22T15:30:53.505Z,4.20
2023-04-22T15:33:20.384Z,3.90
2023-04-22T15:35:49.453Z,4.10
2023-04-22T15:38:17.077Z,4.68
2023-04-22T15:40:44.234Z,4.80
2023-04-22T15:43:11.329Z,4.78
2023-04-22T15:45:38.275Z,4.05
2023-04-22T15:48:05.948Z,3.05
2023-04-22T15:50:32.954Z,3.17
2023-04-22T15:52:59.862Z,3.80
2023-04-22T15:55:26.794Z,3.75
2023-04-22T15:57:53.708Z,3.40
2023-04-22T16:00:21.220Z,3.22
2023-04-22T16:02:55.381Z,3.78
2023-04-22T16:05:24.827Z,3.05
2023-04-22T16:07:53.342Z,3.20
2023-04-22T16:10:21.182Z,3.03
2023-04-22T16:12:49.550Z,2.95
2023-04-22T16:15:16.623Z,3.58
2023-04-22T16:17:44.292Z,3.47
2023-04-22T16:20:11.907Z,3.58
2023-04-22T16:22:38.964Z,3.10
2023-04-22T16:25:06.616Z,3.50
2023-04-22T16:27:33.580Z,3.40
2023-04-22T16:30:00.710Z,3.72
2023-04-22T16:32:27.701Z,3.20
2023-04-22T16:34:54.705Z,4.18
2023-04-22T16:37:21.601Z,3.92
2023-04-22T16:39:49.304Z,4.68
2023-04-22T16:42:16.189Z,4.45
2023-04-22T16:44:43.263Z,4.55
2023-04-22T16:47:10.277Z,4.82
2023-04-22T16:49:37.263Z,5.22
2023-04-22T16:52:04.213Z,5.90
2023-04-22T16:54:31.153Z,5.57
2023-04-22T16:56:58.134Z,6.40
2023-04-22T16:59:25.124Z,6.65
2023-04-22T17:01:52.212Z,6.85
2023-04-22T17:04:19.380Z,7.30
2023-04-22T17:06:46.465Z,8.32
2023-04-22T17:09:13.395Z,7.75
2023-04-22T17:11:40.449Z,7.28
2023-04-22T17:14:07.660Z,7.47
2023-04-22T17:16:34.746Z,7.88
2023-04-22T17:19:01.774Z,7.68
2023-04-22T17:21:28.878Z,8.75
2023-04-22T17:23:56.159Z,8.10
2023-04-22T17:26:23.106Z,8.77
2023-04-22T17:28:49.988Z,8.80
2023-04-22T17:31:17.842Z,8.43
2023-04-22T17:33:44.788Z,8.68
2023-04-22T17:36:11.908Z,9.75
2023-04-22T17:38:40.979Z,8.85
2023-04-22T17:41:07.955Z,8.93
2023-04-22T17:43:34.976Z,9.68
2023-04-22T17:46:02.030Z,9.20
2023-04-22T17:48:28.931Z,9.98
2023-04-22T17:50:55.861Z,9.13
2023-04-22T17:53:22.823Z,10.18
2023-04-22T17:55:49.779Z,10.20
2023-04-22T17:58:16.684Z,9.77
2023-04-22T18:00:43.825Z,10.20
2023-04-22T18:03:11.160Z,10.30
2023-04-22T18:05:44.608Z,11.27
2023-04-22T18:08:11.664Z,10.85
2023-04-22T18:10:38.971Z,10.52
2023-04-22T18:13:06.792Z,10.63
2023-04-22T18:15:33.750Z,10.98
2023-04-22T18:18:01.323Z,11.45
2023-04-22T18:20:28.474Z,10.65
2023-04-22T18:22:56.512Z,10.70
2023-04-22T18:25:24.294Z,11.80
2023-04-22T18:27:54.992Z,11.20
2023-04-22T18:30:23.318Z,12.07
2023-04-22T18:32:51.682Z,11.18
2023-04-22T18:35:20.015Z,10.68
2023-04-22T18:37:47.603Z,11.18
2023-04-22T18:40:14.901Z,12.07
2023-04-22T18:42:44.714Z,11.15
2023-04-22T18:45:12.443Z,12.25
2023-04-22T18:47:39.882Z,11.50
2023-04-22T18:50:07.693Z,11.98
2023-04-22T18:52:34.997Z,11.90
2023-04-22T18:55:02.268Z,11.35
2023-04-22T18:57:29.374Z,11.82
2023-04-22T18:59:56.447Z,12.52
2023-04-22T19:02:23.405Z,12.35
2023-04-22T19:04:51.304Z,12.23
2023-04-22T19:07:18.287Z,11.55
2023-04-22T19:09:45.480Z,13.38
2023-04-22T19:12:14.814Z,12.82
2023-04-22T19:14:42.747Z,13.02
2023-04-22T19:17:10.101Z,12.95
2023-04-22T19:19:37.038Z,14.57
2023-04-22T19:22:03.985Z,16.25
2023-04-22T19:24:33.596Z,15.13
2023-04-22T19:27:03.075Z,14.82
2023-04-22T19:29:30.152Z,12.93
2023-04-22T19:31:57.353Z,12.23
2023-04-22T19:34:24.474Z,12.25
2023-04-22T19:36:51.443Z,12.13
2023-04-22T19:39:18.434Z,13.63
2023-04-22T19:41:45.648Z,13.68
2023-04-22T19:44:12.841Z,13.60
2023-04-22T19:46:39.920Z,12.63
2023-04-22T19:49:07.221Z,12.43
2023-04-22T19:51:35.253Z,13.93
2023-04-22T19:54:02.947Z,14.40
2023-04-22T19:56:30.025Z,14.38
2023-04-22T19:58:57.400Z,15.48
2023-04-22T20:01:24.654Z,14.15
2023-04-22T20:03:52.229Z,14.00
2023-04-22T20:06:22.879Z,13.45
2023-04-22T20:08:53.565Z,12.85
2023-04-22T20:11:21.421Z,14.18
2023-04-22T20:13:49.720Z,15.13
2023-04-22T20:16:19.321Z,15.43
2023-04-22T20:18:46.773Z,15.23
2023-04-22T20:21:14.668Z,14.95
2023-04-22T20:23:42.655Z,14.23
2023-04-22T20:26:10.395Z,14.23
2023-04-22T20:28:48.833Z,13.88
2023-04-22T20:31:20.453Z,12.80
2023-04-22T20:33:48.353Z,13.73
2023-04-22T20:36:16.896Z,11.75
2023-04-22T20:38:48.803Z,12.63
2023-04-22T20:41:18.821Z,14.13
2023-04-22T20:43:46.517Z,14.65
2023-04-22T20:46:13.723Z,15.00
2023-04-22T20:48:41.147Z,14.05
2023-04-22T20:51:08.232Z,13.57
2023-04-22T20:53:35.447Z,14.60
2023-04-22T20:56:02.965Z,14.55
2023-04-22T20:58:30.084Z,15.55
2023-04-22T21:00:57.118Z,15.57
2023-04-22T21:03:26.680Z,15.98
2023-04-22T21:05:54.085Z,18.17
2023-04-22T21:08:23.485Z,18.48
2023-04-22T21:10:52.901Z,16.55
2023-04-22T21:13:20.123Z,14.70
2023-04-22T21:16:01.253Z,13.73
2023-04-22T21:18:29.427Z,13.85
2023-04-22T21:20:57.117Z,14.30
2023-04-22T21:23:25.405Z,14.82
2023-04-22T21:25:55.557Z,15.27
2023-04-22T21:28:23.275Z,15.13
2023-04-22T21:30:50.564Z,15.43
2023-04-22T21:33:17.488Z,15.38
2023-04-22T21:35:44.526Z,16.70
2023-04-22T21:38:11.734Z,15.93
2023-04-22T21:40:38.669Z,15.32
2023-04-22T21:43:06.175Z,16.00
2023-04-22T21:45:33.458Z,15.85
2023-04-22T21:48:00.709Z,16.17
2023-04-22T21:50:30.130Z,17.98
2023-04-22T21:52:57.648Z,16.95
2023-04-22T21:55:24.667Z,16.88
2023-04-22T21:57:51.760Z,16.48
2023-04-22T22:00:19.277Z,16.02
2023-04-22T22:02:47.367Z,16.98
2023-04-22T22:05:15.716Z,16.67
2023-04-22T22:07:43.479Z,17.35
2023-04-22T22:10:16.274Z,18.05
2023-04-22T22:12:43.189Z,19.02
2023-04-22T22:15:11.436Z,16.65
2023-04-22T22:17:40.266Z,17.52
2023-04-22T22:20:12.005Z,16.58
2023-04-22T22:22:43.682Z,18.50
2023-04-22T22:25:13.622Z,17.63
2023-04-22T22:27:45.497Z,17.55
2023-04-22T22:30:13.650Z,17.90
2023-04-22T22:32:40.902Z,17.58
2023-04-22T22:35:08.482Z,18.50
2023-04-22T22:37:35.818Z,18.70
2023-04-22T22:40:02.989Z,17.67
2023-04-22T22:42:29.985Z,18.20
2023-04-22T22:44:57.597Z,18.42
2023-04-22T22:47:25.651Z,18.70
2023-04-22T22:49:53.491Z,18.73
2023-04-22T22:52:20.464Z,19.08
2023-04-22T22:54:48.778Z,17.90
2023-04-22T22:57:16.331Z,17.67
2023-04-22T22:59:43.446Z,18.67
2023-04-22T23:02:10.822Z,18.27
2023-04-22T23:04:39.430Z,18.73
2023-04-22T23:07:06.718Z,18.15
2023-04-22T23:09:33.628Z,17.48
2023-04-22T23:12:02.658Z,17.92
2023-04-22T23:14:30.213Z,18.95
2023-04-22T23:16:57.305Z,18.33
2023-04-22T23:19:25.668Z,17.70
2023-04-22T23:21:54.464Z,17.60
2023-04-22T23:24:21.524Z,18.02
2023-04-22T23:26:48.744Z,18.73
2023-04-22T23:29:16.541Z,18.83
2023-04-22T23:31:44.256Z,17.67
2023-04-22T23:34:11.896Z,18.40
2023-04-22T23:36:39.270Z,18.17
2023-04-22T23:39:06.794Z,19.15
2023-04-22T23:41:34.033Z,18.05
2023-04-22T23:44:01.048Z,18.08
2023-04-22T23:46:28.213Z,19.13
2023-04-22T23:48:55.556Z,18.58
2023-04-22T23:51:22.626Z,18.23
2023-04-22T23:53:49.560Z,18.77
2023-04-22T23:56:21.052Z,18.00
2023-04-22T23:58:49.121Z,19.10
